Home > Products > Valid Products > TAF

000
FTUS45 KGGW 240500
TAFSDY
TAF
KSDY 240530Z 2406/2506 13008KT P6SM FEW070 BKN150
     FM240900 12011G21KT P6SM VCSH BKN060
     FM242100 20011KT P6SM VCTS BKN050CB
     FM250100 34012G22KT P6SM BKN250
      AMD LTD TO CLD VIS AND WIND=



000
FTUS45 KGGW 240500
TAFGGW
TAF
KGGW 240530Z 2406/2506 11016KT P6SM VCTS FEW070CB BKN150
     FM240900 10015KT P6SM SCT150
     FM241800 31010KT P6SM SCT250
     FM242200 30015G25KT P6SM SCT250=



000
FTUS45 KGGW 240500
TAFGDV
TAF
KGDV 240530Z 2406/2506 12015G23KT P6SM FEW070 BKN150
     FM241000 12011G21KT P6SM VCSH BKN060
     FM242200 20011G20KT P6SM VCTS BKN050CB
     FM250200 34015G25KT P6SM BKN250
      AMD LTD TO CLD VIS AND WIND=



000
FTUS45 KGGW 240500
TAFOLF
TAF
KOLF 240530Z 2406/2506 11011G21KT P6SM FEW070 BKN150
     FM240800 11011G21KT P6SM VCTS BKN060CB
     FM241200 08008KT P6SM SCT150
     FM241800 31010KT P6SM VCSH FEW060 SCT250
     FM250000 30015G25KT P6SM BKN250=



000
FTUS45 KGGW 240500
TAFGDV
TAF
KGDV 240530Z 2406/2506 12015G23KT P6SM FEW070 BKN150
     FM241000 12011G21KT P6SM VCSH BKN060
     FM242200 20011G20KT P6SM VCTS BKN050CB
     FM250200 34015G25KT P6SM BKN250
      AMD LTD TO CLD VIS AND WIND=



000
FTUS45 KGGW 232300
TAFOLF
TAF
KOLF 232320Z 2400/2424 11016G25KT P6SM SCT160
     FM240230 11015G25KT P6SM VCTS SCT100CB
     FM241200 10009KT P6SM FEW220
     FM241800 VRB05KT P6SM VCSH SCT190=



000
FTUS45 KGGW 232300
TAFGDV
TAF
KGDV 232320Z 2400/2424 13016G25KT P6SM SCT170
     FM240400 12013G26KT P6SM VCTS SCT100CB
     FM241200 12009KT P6SM FEW220
     FM242100 VRB06KT P6SM SCT200
      AMD LTD TO CLD VIS AND WIND=



000
FTUS45 KGGW 232300
TAFSDY
TAF
KSDY 232320Z 2400/2424 13016G24KT P6SM SCT160
     FM240300 11015G25KT P6SM VCTS SCT100CB
     FM241200 13010KT P6SM FEW230
     FM241800 VRB05KT P6SM SCT190
      AMD LTD TO CLD VIS AND WIND=



000
FTUS45 KGGW 232300
TAFGGW
TAF
KGGW 232320Z 2400/2424 11018G27KT P6SM SCT160
     FM240200 11015G25KT P6SM VCTS SCT100CB
     FM241200 10010KT P6SM FEW200
     FM241800 31010KT P6SM SCT220=



000
FTUS45 KGGW 232300
TAFGDV
TAF
KGDV 232320Z 2400/2424 13016G25KT P6SM SCT170
     FM240400 12013G26KT P6SM VCTS SCT100CB
     FM241200 12009KT P6SM FEW220
     FM242100 VRB06KT P6SM SCT200
      AMD LTD TO CLD VIS AND WIND=



000
FTUS45 KGGW 232300
TAFOLF
TAF
KOLF 232320Z 2400/2424 11016G25KT P6SM SCT160
     FM240230 11015G25KT P6SM VCTS SCT100CB
     FM241200 10009KT P6SM FEW220
     FM241800 VRB05KT P6SM VCSH SCT190=



000
FTUS45 KGGW 231700
TAFOLF
TAF
KOLF 231720Z 2318/2418 10015KT P6SM SCT210
     FM240000 11017G26KT P6SM VCTS SCT100CB
     FM240600 07017KT P6SM VCSH SCT190
     FM241200 10009KT P6SM FEW230=



000
FTUS45 KGGW 231700
TAFGDV
TAF
KGDV 231720Z 2318/2418 10012KT P6SM SCT210
     FM240000 13017G26KT P6SM VCTS SCT110CB
     FM240600 12012KT P6SM SCT250
     FM241200 12008KT P6SM SCT230
      AMD LTD TO CLD VIS AND WIND=



000
FTUS45 KGGW 231700
TAFOLF
TAF
KOLF 231720Z 2318/2418 10015KT P6SM SCT210
     FM240000 11017G26KT P6SM VCTS SCT100CB
     FM240600 07017KT P6SM VCSH SCT190
     FM241200 10009KT P6SM FEW230=



000
FTUS45 KGGW 231700
TAFGGW
TAF
KGGW 231720Z 2318/2418 11016G24KT P6SM SCT200
     FM240000 11018G27KT P6SM VCTS SCT100CB
     FM240600 09014KT P6SM VCSH SCT200
     FM241200 11009KT P6SM FEW210
     FM241500 VRB04KT P6SM FEW210=



000
FTUS45 KGGW 231700
TAFGDV
TAF
KGDV 231720Z 2318/2418 10012KT P6SM SCT210
     FM240000 13017G26KT P6SM VCTS SCT110CB
     FM240600 12012KT P6SM SCT250
     FM241200 12008KT P6SM SCT230
      AMD LTD TO CLD VIS AND WIND=



000
FTUS45 KGGW 231700
TAFSDY
TAF
KSDY 231720Z 2318/2418 11014KT P6SM SCT230
     FM240000 13018G27KT P6SM VCTS SCT100CB
     FM240600 12016KT P6SM VCSH SCT160
     FM241200 13012KT P6SM SCT230
     FM241500 14007KT P6SM SCT210
      AMD LTD TO CLD VIS AND WIND=



000
FTUS45 KGGW 231634 AAA
TAFGGW
TAF AMD
KGGW 231634Z 2317/2412 11018G25KT P6SM SCT250
     FM240200 11020G28KT P6SM VCTS SCT070CB BKN120
     FM240800 10014KT P6SM BKN200=



000
FTUS45 KGGW 231100
TAFGDV
TAF
KGDV 231134Z 2312/2412 VRB05KT P6SM SCT150
     FM231600 14015G22KT P6SM SCT250
     FM240200 12011KT P6SM BKN250
      AMD LTD TO CLD VIS AND WIND=



000
FTUS45 KGGW 231100
TAFGDV
TAF
KGDV 231134Z 2312/2412 VRB05KT P6SM SCT150
     FM231600 14015G22KT P6SM SCT250
     FM240200 12011KT P6SM BKN250
      AMD LTD TO CLD VIS AND WIND=



000
FTUS45 KGGW 231100
TAFOLF
TAF
KOLF 231134Z 2312/2412 10005KT 6SM BR SCT150
     FM231600 10013G17KT P6SM SCT250
     FM240200 09016G23KT P6SM VCTS SCT070CB BKN120
     FM240800 08009KT P6SM BKN200=



000
FTUS45 KGGW 231100
TAFOLF
TAF
KOLF 231134Z 2312/2412 10005KT 6SM BR SCT150
     FM231600 10013G17KT P6SM SCT250
     FM240200 09016G23KT P6SM VCTS SCT070CB BKN120
     FM240800 08009KT P6SM BKN200=



000
FTUS45 KGGW 231100
TAFGGW
TAF
KGGW 231134Z 2312/2412 11009KT P6SM SCT150
     FM231700 11018G25KT P6SM SCT250
     FM240200 11020G28KT P6SM VCTS SCT070CB BKN120
     FM240800 10014KT P6SM BKN200=



000
FTUS45 KGGW 231100
TAFSDY
TAF
KSDY 231134Z 2312/2412 VRB04KT P6SM SCT150
     FM231700 14014G22KT P6SM SCT250
     FM240300 13012G18KT P6SM SCT070 BKN250
     FM240800 13007KT P6SM BKN200
      AMD LTD TO CLD VIS AND WIND=



000
FTUS45 KGGW 230500
TAFOLF
TAF
KOLF 230523Z 2306/2406 07005KT P6SM SCT120 BKN300
     FM231500 10011G17KT P6SM SCT120 BKN250
     FM232000 11014G23KT P6SM BKN300
     FM240200 09018G25KT P6SM VCTS SCT070CB BKN120=



000
FTUS45 KGGW 230500
TAFGDV
TAF
KGDV 230523Z 2306/2406 VRB05KT P6SM FEW050 SCT120 BKN250
     FM231500 14011G17KT P6SM FEW250
     FM232200 13022G30KT P6SM BKN250
     FM240200 11015G25KT P6SM FEW300
      AMD LTD TO CLD VIS AND WIND=



000
FTUS45 KGGW 230500
TAFSDY
TAF
KSDY 230523Z 2306/2406 VRB04KT P6SM SCT050 BKN250
     FM231600 14011G17KT P6SM SCT250
     FM232200 14020G28KT P6SM BKN250
     FM240200 13012G18KT P6SM VCSH SCT070 BKN250
      AMD LTD TO CLD VIS AND WIND=



000
FTUS45 KGGW 230500
TAFOLF
TAF
KOLF 230523Z 2306/2406 07005KT P6SM SCT120 BKN300
     FM231500 10011G17KT P6SM SCT120 BKN250
     FM232000 11014G23KT P6SM BKN300
     FM240200 09018G25KT P6SM VCTS SCT070CB BKN120=



000
FTUS45 KGGW 230500
TAFGDV
TAF
KGDV 230523Z 2306/2406 VRB05KT P6SM FEW050 SCT120 BKN250
     FM231500 14011G17KT P6SM FEW250
     FM232200 13022G30KT P6SM BKN250
     FM240200 11015G25KT P6SM FEW300
      AMD LTD TO CLD VIS AND WIND=



000
FTUS45 KGGW 230500
TAFGGW
TAF
KGGW 230523Z 2306/2406 09010KT P6SM SCT120
     FM231200 11013KT P6SM SCT120 BKN200
     FM231700 13020G27KT P6SM FEW300
     FM240000 11025G33KT P6SM VCTS SCT070CB BKN120=



000
FTUS45 KGGW 222300
TAFSDY
TAF
KSDY 222320Z 2300/2324 VRB06KT P6SM VCSH BKN100
     FM230200 10006KT P6SM BKN080
     FM231500 12013KT P6SM SCT100
     FM232000 13015G25KT P6SM SCT110
      AMD LTD TO CLD VIS AND WIND=



000
FTUS45 KGGW 222300
TAFGDV
TAF
KGDV 222320Z 2300/2324 VRB05KT P6SM VCSH SCT040 BKN100
     FM230100 09008KT P6SM BKN080
     FM231500 11012KT P6SM SCT100
     FM232000 13017G25KT P6SM SCT100
      AMD LTD TO CLD VIS AND WIND=



000
FTUS45 KGGW 222300
TAFGDV
TAF
KGDV 222320Z 2300/2324 VRB05KT P6SM VCSH SCT040 BKN100
     FM230100 09008KT P6SM BKN080
     FM231500 11012KT P6SM SCT100
     FM232000 13017G25KT P6SM SCT100
      AMD LTD TO CLD VIS AND WIND=



000
FTUS45 KGGW 222300
TAFOLF
TAF
KOLF 222320Z 2300/2324 VRB05KT P6SM SCT080
     FM230300 09006KT P6SM BKN100
     FM231600 10012G22KT P6SM SCT100
     FM232000 12015G25KT P6SM SCT100=



000
FTUS45 KGGW 222300
TAFGGW
TAF
KGGW 222320Z 2300/2324 VRB05KT P6SM SCT080
     FM230300 10011KT P6SM BKN100
     FM231600 12016KT P6SM SCT100
     FM231900 13017G25KT P6SM SCT100=



000
FTUS45 KGGW 222300
TAFOLF
TAF
KOLF 222320Z 2300/2324 VRB05KT P6SM SCT080
     FM230300 09006KT P6SM BKN100
     FM231600 10012G22KT P6SM SCT100
     FM232000 12015G25KT P6SM SCT100=



000
FTUS45 KGGW 222100 AAA
TAFGDV
TAF AMD
KGDV 222114Z 2221/2318 VRB05KT P6SM SCT070
      TEMPO 2222/2302 P6SM -TSRA BKN050CB
     FM230300 09008KT P6SM BKN080
     FM231500 11012KT P6SM SCT100
      AMD LTD TO CLD VIS AND WIND=



000
FTUS45 KGGW 222100 AAA
TAFGDV
TAF AMD
KGDV 222114Z 2221/2318 VRB05KT P6SM SCT070
      TEMPO 2222/2302 P6SM -TSRA BKN050CB
     FM230300 09008KT P6SM BKN080
     FM231500 11012KT P6SM SCT100
      AMD LTD TO CLD VIS AND WIND=



000
FTUS45 KGGW 221700
TAFGDV
TAF
KGDV 221720Z 2218/2318 VRB05KT P6SM VCSH SCT080
     FM230300 09008KT P6SM BKN080
     FM231500 11012KT P6SM SCT100
      AMD LTD TO CLD VIS AND WIND=



000
FTUS45 KGGW 221700
TAFOLF
TAF
KOLF 221720Z 2218/2318 VRB05KT P6SM SCT080
     FM230300 09006KT P6SM BKN100
     FM231600 10012G22KT P6SM SCT100=



000
FTUS45 KGGW 221700
TAFSDY
TAF
KSDY 221720Z 2218/2318 VRB06KT P6SM SCT080
     FM230200 10006KT P6SM BKN080
     FM231500 12013KT P6SM SCT100
      AMD LTD TO CLD VIS AND WIND=



000
FTUS45 KGGW 221700
TAFGGW
TAF
KGGW 221720Z 2218/2318 VRB05KT P6SM SCT080
     FM230300 10011KT P6SM BKN100
     FM231600 12016KT P6SM SCT100=



000
FTUS45 KGGW 221700
TAFGDV
TAF
KGDV 221720Z 2218/2318 VRB05KT P6SM VCSH SCT080
     FM230300 09008KT P6SM BKN080
     FM231500 11012KT P6SM SCT100
      AMD LTD TO CLD VIS AND WIND=



000
FTUS45 KGGW 221700
TAFOLF
TAF
KOLF 221720Z 2218/2318 VRB05KT P6SM SCT080
     FM230300 09006KT P6SM BKN100
     FM231600 10012G22KT P6SM SCT100=



000
FTUS45 KGGW 221200 AAB
TAFOLF
TAF AMD
KOLF 221246Z 2213/2312 VRB05KT 3SM BR SCT005 SCT150
     FM221500 VRB05KT P6SM SCT150=



000
FTUS45 KGGW 221200 AAB
TAFOLF
TAF AMD
KOLF 221246Z 2213/2312 VRB05KT 3SM BR SCT005 SCT150
     FM221500 VRB05KT P6SM SCT150=



000
FTUS45 KGGW 221100 CCA
TAFOLF
TAF COR
KOLF 221140Z 2212/2312 VRB05KT 1/4SM FG VV004
     FM221500 VRB05KT P6SM SCT150=



000
FTUS45 KGGW 221100 CCA
TAFOLF
TAF COR
KOLF 221140Z 2212/2312 VRB05KT 1/4SM FG VV004
     FM221500 VRB05KT P6SM SCT150=



000
FTUS45 KGGW 221100 AAA
TAFOLF
TAF AMD
KOLF 221138Z 2212/2312 VRB05KT 3/4SM BR VV004
     FM221500 VRB05KT P6SM SCT150=



000
FTUS45 KGGW 221100 AAA
TAFOLF
TAF AMD
KOLF 221138Z 2212/2312 VRB05KT 3/4SM BR VV004
     FM221500 VRB05KT P6SM SCT150=



000
FTUS45 KGGW 221100
TAFGDV
TAF
KGDV 221120Z 2212/2312 VRB05KT P6SM SCT110
     FM230300 09009KT P6SM SCT150
      AMD LTD TO CLD VIS AND WIND=



000
FTUS45 KGGW 221100
TAFGDV
TAF
KGDV 221120Z 2212/2312 VRB05KT P6SM SCT110
     FM230300 09009KT P6SM SCT150
      AMD LTD TO CLD VIS AND WIND=



000
FTUS45 KGGW 221100
TAFOLF
TAF
KOLF 221120Z 2212/2312 VRB05KT 3/4SM BR FEW090 SCT150
     FM221600 VRB05KT P6SM SCT150=



000
FTUS45 KGGW 221100
TAFGGW
TAF
KGGW 221120Z 2212/2312 VRB05KT P6SM FEW090 SCT150
     FM230300 10013KT P6SM FEW100=



000
FTUS45 KGGW 221100
TAFOLF
TAF
KOLF 221120Z 2212/2312 VRB05KT 3/4SM BR FEW090 SCT150
     FM221600 VRB05KT P6SM SCT150=



000
FTUS45 KGGW 221100
TAFSDY
TAF
KSDY 221120Z 2212/2312 VRB04KT P6SM SCT150
      AMD LTD TO CLD VIS AND WIND=



000
FTUS45 KGGW 220500
TAFSDY
TAF
KSDY 220522Z 2206/2306 VRB04KT P6SM BKN150
      AMD LTD TO CLD VIS AND WIND=



000
FTUS45 KGGW 220500
TAFGGW
TAF
KGGW 220522Z 2206/2306 10008KT P6SM SCT070 BKN120=



000
FTUS45 KGGW 220500
TAFOLF
TAF
KOLF 220522Z 2206/2306 VRB05KT P6SM BKN150=



000
FTUS45 KGGW 220500
TAFGDV
TAF
KGDV 220522Z 2206/2306 VRB05KT P6SM BKN110
      AMD LTD TO CLD VIS AND WIND=



000
FTUS45 KGGW 220500
TAFGDV
TAF
KGDV 220522Z 2206/2306 VRB05KT P6SM BKN110
      AMD LTD TO CLD VIS AND WIND=



000
FTUS45 KGGW 220500
TAFOLF
TAF
KOLF 220522Z 2206/2306 VRB05KT P6SM BKN150=



000
FTUS45 KGGW 212300
TAFOLF
TAF
KOLF 212327Z 2200/2224 03010G20KT P6SM VCSH BKN070
     FM220600 06007KT P6SM SCT130
     FM221800 VRB05KT P6SM BKN120=



000
FTUS45 KGGW 212300
TAFOLF
TAF
KOLF 212327Z 2200/2224 03010G20KT P6SM VCSH BKN070
     FM220600 06007KT P6SM SCT130
     FM221800 VRB05KT P6SM BKN120=



000
FTUS45 KGGW 212300
TAFGGW
TAF
KGGW 212327Z 2200/2224 03007KT P6SM VCSH BKN070
     FM220600 09008KT P6SM SCT130
     FM221800 VRB05KT P6SM BKN120=



000
FTUS45 KGGW 212300
TAFGDV
TAF
KGDV 212327Z 2200/2224 36013G19KT P6SM VCSH BKN080
     FM220500 VRB05KT P6SM VCSH BKN070
     FM221200 VRB04KT P6SM SCT050
      AMD LTD TO CLD VIS AND WIND=



000
FTUS45 KGGW 212300
TAFSDY
TAF
KSDY 212327Z 2200/2224 02011KT P6SM VCSH BKN070
     FM221200 VRB05KT P6SM SCT110
      AMD LTD TO CLD VIS AND WIND=



000
FTUS45 KGGW 212300
TAFGDV
TAF
KGDV 212327Z 2200/2224 36013G19KT P6SM VCSH BKN080
     FM220500 VRB05KT P6SM VCSH BKN070
     FM221200 VRB04KT P6SM SCT050
      AMD LTD TO CLD VIS AND WIND=



000
FTUS45 KGGW 211900 AAA
TAFGGW
TAF AMD
KGGW 211921Z 2119/2218 34015KT P6SM SCT080 BKN140
     FM212300 03016KT P6SM BKN080
      TEMPO 2200/2204 P6SM -TSRA BKN050CB
     FM220600 08006KT P6SM FEW150=



000
FTUS45 KGGW 211900 AAA
TAFGDV
TAF AMD
KGDV 211917Z 2119/2218 01014KT P6SM SCT080 BKN140
     FM212300 35012KT P6SM SCT050 BKN100
      TEMPO 2200/2204 3SM TSRA OVC040CB
     FM220400 02012KT P6SM VCTS BKN050CB
     FM220900 VRB06KT P6SM BKN050
      AMD LTD TO CLD VIS AND WIND=



000
FTUS45 KGGW 211900 AAA
TAFGDV
TAF AMD
KGDV 211917Z 2119/2218 01014KT P6SM SCT080 BKN140
     FM212300 35012KT P6SM SCT050 BKN100
      TEMPO 2200/2204 3SM TSRA OVC040CB
     FM220400 02012KT P6SM VCTS BKN050CB
     FM220900 VRB06KT P6SM BKN050
      AMD LTD TO CLD VIS AND WIND=



000
FTUS45 KGGW 211900 AAA
TAFSDY
TAF AMD
KSDY 211916Z 2119/2218 01013KT P6SM SCT080 BKN140
     FM220000 01012KT P6SM BKN080
      TEMPO 2202/2206 P6SM -TSRA BKN050CB
     FM220800 VRB05KT P6SM SCT080 BKN140
      AMD LTD TO CLD VIS AND WIND=



000
FTUS45 KGGW 211700
TAFGDV
TAF
KGDV 211730Z 2118/2218 04007KT P6SM -SHRA SCT080 BKN140
     FM212300 35012KT P6SM SCT050 BKN100
      TEMPO 2200/2204 3SM TSRA OVC040CB
     FM220400 02012KT P6SM VCTS BKN050CB
     FM220900 VRB06KT P6SM BKN050
      AMD LTD TO CLD VIS AND WIND=



000
FTUS45 KGGW 211700
TAFOLF
TAF
KOLF 211730Z 2118/2218 08008KT P6SM SCT080 BKN140
     FM212300 03012KT P6SM BKN080
      TEMPO 2200/2204 4SM -TSRA BKN040CB
     FM220600 VRB06KT P6SM FEW150=



000
FTUS45 KGGW 211700
TAFGDV
TAF
KGDV 211730Z 2118/2218 04007KT P6SM -SHRA SCT080 BKN140
     FM212300 35012KT P6SM SCT050 BKN100
      TEMPO 2200/2204 3SM TSRA OVC040CB
     FM220400 02012KT P6SM VCTS BKN050CB
     FM220900 VRB06KT P6SM BKN050
      AMD LTD TO CLD VIS AND WIND=



000
FTUS45 KGGW 211700
TAFSDY
TAF
KSDY 211730Z 2118/2218 04006KT P6SM VCSH SCT080 BKN140
      TEMPO 2119/2122 P6SM -TSRA BKN050CB
     FM220000 01012KT P6SM BKN080
      TEMPO 2202/2206 P6SM -TSRA BKN050CB
     FM220800 VRB05KT P6SM SCT080 BKN140
      AMD LTD TO CLD VIS AND WIND=



000
FTUS45 KGGW 211700
TAFGGW
TAF
KGGW 211730Z 2118/2218 06006KT P6SM SCT080 BKN140
     FM212300 03016KT P6SM BKN080
      TEMPO 2200/2204 P6SM -TSRA BKN050CB
     FM220600 08006KT P6SM FEW150=



000
FTUS45 KGGW 211700
TAFOLF
TAF
KOLF 211730Z 2118/2218 08008KT P6SM SCT080 BKN140
     FM212300 03012KT P6SM BKN080
      TEMPO 2200/2204 4SM -TSRA BKN040CB
     FM220600 VRB06KT P6SM FEW150=



000
FTUS45 KGGW 211600 AAA
TAFGDV
TAF AMD
KGDV 211619Z 2116/2212 04007KT P6SM -SHRA SCT080
     FM212300 35012KT P6SM SCT050 BKN100
      TEMPO 2200/2204 5SM TSRA OVC040CB
     FM220600 01006KT P6SM SCT080
      AMD LTD TO CLD VIS AND WIND=



000
FTUS45 KGGW 211600 AAA
TAFGDV
TAF AMD
KGDV 211619Z 2116/2212 04007KT P6SM -SHRA SCT080
     FM212300 35012KT P6SM SCT050 BKN100
      TEMPO 2200/2204 5SM TSRA OVC040CB
     FM220600 01006KT P6SM SCT080
      AMD LTD TO CLD VIS AND WIND=



000
FTUS45 KGGW 211100
TAFSDY
TAF
KSDY 211120Z 2112/2212 04006KT P6SM SCT150
     FM220000 01012KT P6SM BKN100
     FM220600 34005KT P6SM SCT080
      AMD LTD TO CLD VIS AND WIND=



000
FTUS45 KGGW 211100
TAFOLF
TAF
KOLF 211120Z 2112/2212 05007KT P6SM SCT140
     FM220000 03012KT P6SM BKN100
     FM220600 06006KT P6SM SCT080=



000
FTUS45 KGGW 211100
TAFGGW
TAF
KGGW 211120Z 2112/2212 06006KT P6SM SCT100
     FM220000 03016KT P6SM BKN100
     FM220600 08006KT P6SM FEW080=



000
FTUS45 KGGW 211100
TAFGDV
TAF
KGDV 211120Z 2112/2212 04007KT P6SM SCT200
     FM220000 35012KT P6SM BKN090
     FM220600 36008KT P6SM SCT080
      AMD LTD TO CLD VIS AND WIND=



000
FTUS45 KGGW 211100
TAFGDV
TAF
KGDV 211120Z 2112/2212 04007KT P6SM SCT200
     FM220000 35012KT P6SM BKN090
     FM220600 36008KT P6SM SCT080
      AMD LTD TO CLD VIS AND WIND=



000
FTUS45 KGGW 211100
TAFOLF
TAF
KOLF 211120Z 2112/2212 05007KT P6SM SCT140
     FM220000 03012KT P6SM BKN100
     FM220600 06006KT P6SM SCT080=



    US Dept of Commerce
    National Oceanic and Atmospheric Administration
    National Weather Service
    1325 East West Highway
    Silver Spring, MD 20910
    Page Author: NWS Internet Services Team
Disclaimer
Information Quality
Credits
Glossary
Privacy Policy
Freedom of Information Act (FOIA)
About Us
Career Opportunities